sensor_id;sensor_type;location;lat;lon;timestamp;P1;durP1;ratioP1;P2;durP2;ratioP2
7239;SDS011;3661;53.288;10.458;2023-01-26T00:00:55;574.10;;;520.20;;
7239;SDS011;3661;53.288;10.458;2023-01-26T00:03:27;559.60;;;506.05;;
7239;SDS011;3661;53.288;10.458;2023-01-26T00:06:01;576.55;;;522.83;;
7239;SDS011;3661;53.288;10.458;2023-01-26T00:08:35;569.80;;;515.97;;
7239;SDS011;3661;53.288;10.458;2023-01-26T00:11:09;585.00;;;530.80;;
7239;SDS011;3661;53.288;10.458;2023-01-26T00:13:43;579.20;;;524.63;;
7239;SDS011;3661;53.288;10.458;2023-01-26T00:16:15;588.97;;;534.27;;
7239;SDS011;3661;53.288;10.458;2023-01-26T00:18:47;569.25;;;515.20;;
7239;SDS011;3661;53.288;10.458;2023-01-26T00:21:20;560.00;;;505.98;;
7239;SDS011;3661;53.288;10.458;2023-01-26T00:23:53;590.00;;;535.33;;
7239;SDS011;3661;53.288;10.458;2023-01-26T00:26:27;557.15;;;502.55;;
7239;SDS011;3661;53.288;10.458;2023-01-26T00:28:59;567.43;;;513.40;;
7239;SDS011;3661;53.288;10.458;2023-01-26T00:31:31;570.10;;;516.10;;
7239;SDS011;3661;53.288;10.458;2023-01-26T00:34:03;575.17;;;521.22;;
7239;SDS011;3661;53.288;10.458;2023-01-26T00:36:35;576.38;;;521.53;;
7239;SDS011;3661;53.288;10.458;2023-01-26T00:39:07;583.53;;;529.45;;
7239;SDS011;3661;53.288;10.458;2023-01-26T00:41:41;566.70;;;512.63;;
7239;SDS011;3661;53.288;10.458;2023-01-26T00:44:30;583.78;;;529.47;;
7239;SDS011;3661;53.288;10.458;2023-01-26T00:47:03;582.35;;;528.53;;
7239;SDS011;3661;53.288;10.458;2023-01-26T00:49:35;585.15;;;531.15;;
7239;SDS011;3661;53.288;10.458;2023-01-26T00:52:08;570.15;;;516.10;;
7239;SDS011;3661;53.288;10.458;2023-01-26T00:54:41;585.33;;;531.03;;
7239;SDS011;3661;53.288;10.458;2023-01-26T00:57:18;567.33;;;513.17;;
7239;SDS011;3661;53.288;10.458;2023-01-26T00:59:52;595.08;;;540.20;;
7239;SDS011;3661;53.288;10.458;2023-01-26T01:02:31;593.95;;;538.50;;
7239;SDS011;3661;53.288;10.458;2023-01-26T01:05:04;587.92;;;533.03;;
7239;SDS011;3661;53.288;10.458;2023-01-26T01:07:39;573.63;;;518.90;;
7239;SDS011;3661;53.288;10.458;2023-01-26T01:10:11;578.80;;;523.30;;
7239;SDS011;3661;53.288;10.458;2023-01-26T01:12:45;579.88;;;524.58;;
7239;SDS011;3661;53.288;10.458;2023-01-26T01:15:17;584.97;;;529.90;;
7239;SDS011;3661;53.288;10.458;2023-01-26T01:17:50;588.22;;;533.10;;
7239;SDS011;3661;53.288;10.458;2023-01-26T01:20:22;591.67;;;537.07;;
7239;SDS011;3661;53.288;10.458;2023-01-26T01:22:58;593.92;;;539.40;;
7239;SDS011;3661;53.288;10.458;2023-01-26T01:25:31;586.97;;;532.58;;
7239;SDS011;3661;53.288;10.458;2023-01-26T01:28:07;579.28;;;525.08;;
7239;SDS011;3661;53.288;10.458;2023-01-26T01:30:39;578.88;;;524.38;;
7239;SDS011;3661;53.288;10.458;2023-01-26T01:33:12;583.92;;;529.60;;
7239;SDS011;3661;53.288;10.458;2023-01-26T01:35:50;574.90;;;520.40;;
7239;SDS011;3661;53.288;10.458;2023-01-26T01:38:26;587.63;;;533.30;;
7239;SDS011;3661;53.288;10.458;2023-01-26T01:40:58;573.58;;;519.25;;
7239;SDS011;3661;53.288;10.458;2023-01-26T01:43:35;563.92;;;509.50;;
7239;SDS011;3661;53.288;10.458;2023-01-26T01:46:10;571.78;;;516.92;;
7239;SDS011;3661;53.288;10.458;2023-01-26T01:48:50;566.78;;;511.92;;
7239;SDS011;3661;53.288;10.458;2023-01-26T01:51:29;577.97;;;523.30;;
7239;SDS011;3661;53.288;10.458;2023-01-26T01:54:05;565.38;;;510.55;;
7239;SDS011;3661;53.288;10.458;2023-01-26T01:56:41;573.95;;;519.33;;
7239;SDS011;3661;53.288;10.458;2023-01-26T01:59:19;566.28;;;511.52;;
7239;SDS011;3661;53.288;10.458;2023-01-26T02:01:51;581.45;;;526.75;;
7239;SDS011;3661;53.288;10.458;2023-01-26T02:04:26;566.67;;;512.28;;
7239;SDS011;3661;53.288;10.458;2023-01-26T02:06:58;581.08;;;525.83;;
7239;SDS011;3661;53.288;10.458;2023-01-26T02:09:32;583.22;;;527.40;;
7239;SDS011;3661;53.288;10.458;2023-01-26T02:12:26;579.08;;;523.78;;
7239;SDS011;3661;53.288;10.458;2023-01-26T02:15:03;581.15;;;526.28;;
7239;SDS011;3661;53.288;10.458;2023-01-26T02:17:36;563.85;;;509.30;;
7239;SDS011;3661;53.288;10.458;2023-01-26T02:20:10;567.33;;;512.58;;
7239;SDS011;3661;53.288;10.458;2023-01-26T02:22:50;579.88;;;524.25;;
7239;SDS011;3661;53.288;10.458;2023-01-26T02:25:28;581.60;;;526.40;;
7239;SDS011;3661;53.288;10.458;2023-01-26T02:28:09;576.40;;;520.88;;
7239;SDS011;3661;53.288;10.458;2023-01-26T02:30:41;597.25;;;541.03;;
7239;SDS011;3661;53.288;10.458;2023-01-26T02:33:14;589.47;;;533.67;;
7239;SDS011;3661;53.288;10.458;2023-01-26T02:35:48;579.20;;;522.67;;
7239;SDS011;3661;53.288;10.458;2023-01-26T02:38:20;581.53;;;525.72;;
7239;SDS011;3661;53.288;10.458;2023-01-26T02:40:57;590.38;;;534.13;;
7239;SDS011;3661;53.288;10.458;2023-01-26T02:43:36;580.05;;;524.67;;
7239;SDS011;3661;53.288;10.458;2023-01-26T02:46:08;572.50;;;516.65;;
7239;SDS011;3661;53.288;10.458;2023-01-26T02:48:40;581.17;;;525.33;;
7239;SDS011;3661;53.288;10.458;2023-01-26T02:51:30;581.95;;;526.80;;
7239;SDS011;3661;53.288;10.458;2023-01-26T02:54:02;580.03;;;524.78;;
7239;SDS011;3661;53.288;10.458;2023-01-26T02:56:36;596.60;;;541.00;;
7239;SDS011;3661;53.288;10.458;2023-01-26T02:59:12;586.03;;;530.65;;
7239;SDS011;3661;53.288;10.458;2023-01-26T03:01:46;576.20;;;521.03;;
7239;SDS011;3661;53.288;10.458;2023-01-26T03:04:19;581.80;;;526.47;;
7239;SDS011;3661;53.288;10.458;2023-01-26T03:06:55;576.13;;;521.30;;
7239;SDS011;3661;53.288;10.458;2023-01-26T03:09:27;598.72;;;543.30;;
7239;SDS011;3661;53.288;10.458;2023-01-26T03:11:59;594.75;;;539.72;;
7239;SDS011;3661;53.288;10.458;2023-01-26T03:14:33;589.90;;;534.63;;
7239;SDS011;3661;53.288;10.458;2023-01-26T03:17:06;579.38;;;523.70;;
7239;SDS011;3661;53.288;10.458;2023-01-26T03:19:46;594.38;;;538.72;;
7239;SDS011;3661;53.288;10.458;2023-01-26T03:22:36;584.53;;;528.80;;
7239;SDS011;3661;53.288;10.458;2023-01-26T03:25:25;593.03;;;536.75;;
7239;SDS011;3661;53.288;10.458;2023-01-26T03:28:14;598.55;;;542.13;;
7239;SDS011;3661;53.288;10.458;2023-01-26T03:30:53;589.58;;;534.20;;
7239;SDS011;3661;53.288;10.458;2023-01-26T03:33:28;590.07;;;534.17;;
7239;SDS011;3661;53.288;10.458;2023-01-26T03:36:00;590.57;;;535.37;;
7239;SDS011;3661;53.288;10.458;2023-01-26T03:38:32;578.28;;;522.75;;
7239;SDS011;3661;53.288;10.458;2023-01-26T03:41:05;601.17;;;545.13;;
7239;SDS011;3661;53.288;10.458;2023-01-26T03:43:54;584.78;;;530.00;;
7239;SDS011;3661;53.288;10.458;2023-01-26T03:46:45;579.55;;;524.88;;
7239;SDS011;3661;53.288;10.458;2023-01-26T03:49:35;584.67;;;529.78;;
7239;SDS011;3661;53.288;10.458;2023-01-26T03:52:24;596.78;;;541.58;;
7239;SDS011;3661;53.288;10.458;2023-01-26T03:55:14;596.13;;;541.17;;
7239;SDS011;3661;53.288;10.458;2023-01-26T03:58:04;574.65;;;519.97;;
7239;SDS011;3661;53.288;10.458;2023-01-26T04:00:37;583.20;;;527.65;;
7239;SDS011;3661;53.288;10.458;2023-01-26T04:03:11;588.38;;;532.35;;
7239;SDS011;3661;53.288;10.458;2023-01-26T04:06:01;588.92;;;533.75;;
7239;SDS011;3661;53.288;10.458;2023-01-26T04:08:50;595.50;;;540.97;;
7239;SDS011;3661;53.288;10.458;2023-01-26T04:11:22;585.45;;;530.97;;
7239;SDS011;3661;53.288;10.458;2023-01-26T04:13:56;595.88;;;541.22;;
7239;SDS011;3661;53.288;10.458;2023-01-26T04:16:46;590.67;;;536.10;;
7239;SDS011;3661;53.288;10.458;2023-01-26T04:19:37;596.05;;;540.70;;
7239;SDS011;3661;53.288;10.458;2023-01-26T04:22:26;572.08;;;517.05;;
7239;SDS011;3661;53.288;10.458;2023-01-26T04:24:59;592.23;;;537.53;;
7239;SDS011;3661;53.288;10.458;2023-01-26T04:27:32;594.88;;;539.13;;
7239;SDS011;3661;53.288;10.458;2023-01-26T04:30:04;590.05;;;535.45;;
7239;SDS011;3661;53.288;10.458;2023-01-26T04:32:37;592.47;;;536.90;;
7239;SDS011;3661;53.288;10.458;2023-01-26T04:35:11;587.38;;;532.28;;
7239;SDS011;3661;53.288;10.458;2023-01-26T04:37:43;603.53;;;548.33;;
7239;SDS011;3661;53.288;10.458;2023-01-26T04:40:20;594.77;;;539.77;;
7239;SDS011;3661;53.288;10.458;2023-01-26T04:42:52;599.35;;;544.50;;
7239;SDS011;3661;53.288;10.458;2023-01-26T04:45:24;589.95;;;534.55;;
7239;SDS011;3661;53.288;10.458;2023-01-26T04:47:57;582.72;;;527.85;;
7239;SDS011;3661;53.288;10.458;2023-01-26T04:50:33;590.42;;;535.65;;
7239;SDS011;3661;53.288;10.458;2023-01-26T04:53:07;596.38;;;541.63;;
7239;SDS011;3661;53.288;10.458;2023-01-26T04:55:40;593.72;;;538.67;;
7239;SDS011;3661;53.288;10.458;2023-01-26T04:58:13;586.70;;;532.42;;
7239;SDS011;3661;53.288;10.458;2023-01-26T05:00:49;615.88;;;560.45;;
7239;SDS011;3661;53.288;10.458;2023-01-26T05:03:22;585.58;;;531.28;;
7239;SDS011;3661;53.288;10.458;2023-01-26T05:05:57;604.50;;;549.40;;
7239;SDS011;3661;53.288;10.458;2023-01-26T05:08:29;587.10;;;532.80;;
7239;SDS011;3661;53.288;10.458;2023-01-26T05:11:02;576.20;;;521.42;;
7239;SDS011;3661;53.288;10.458;2023-01-26T05:13:35;575.97;;;521.35;;
7239;SDS011;3661;53.288;10.458;2023-01-26T05:16:09;597.75;;;543.08;;
7239;SDS011;3661;53.288;10.458;2023-01-26T05:18:44;585.33;;;531.33;;
7239;SDS011;3661;53.288;10.458;2023-01-26T05:21:18;598.05;;;543.30;;
7239;SDS011;3661;53.288;10.458;2023-01-26T05:23:56;605.40;;;550.92;;
7239;SDS011;3661;53.288;10.458;2023-01-26T05:26:28;593.83;;;538.90;;
7239;SDS011;3661;53.288;10.458;2023-01-26T05:29:01;576.70;;;522.55;;
7239;SDS011;3661;53.288;10.458;2023-01-26T05:31:33;595.53;;;540.40;;
7239;SDS011;3661;53.288;10.458;2023-01-26T05:34:05;583.88;;;529.28;;
7239;SDS011;3661;53.288;10.458;2023-01-26T05:36:40;581.75;;;527.15;;
7239;SDS011;3661;53.288;10.458;2023-01-26T05:39:13;585.17;;;530.58;;
7239;SDS011;3661;53.288;10.458;2023-01-26T05:41:45;585.72;;;531.13;;
7239;SDS011;3661;53.288;10.458;2023-01-26T05:44:17;583.05;;;528.92;;
7239;SDS011;3661;53.288;10.458;2023-01-26T05:46:49;560.65;;;506.65;;
7239;SDS011;3661;53.288;10.458;2023-01-26T05:49:21;577.17;;;523.05;;
7239;SDS011;3661;53.288;10.458;2023-01-26T05:51:55;575.83;;;522.00;;
7239;SDS011;3661;53.288;10.458;2023-01-26T05:54:27;582.33;;;528.63;;
7239;SDS011;3661;53.288;10.458;2023-01-26T05:57:01;568.80;;;514.75;;
7239;SDS011;3661;53.288;10.458;2023-01-26T05:59:33;581.97;;;527.85;;
7239;SDS011;3661;53.288;10.458;2023-01-26T06:02:05;570.77;;;516.67;;
7239;SDS011;3661;53.288;10.458;2023-01-26T06:04:37;588.20;;;534.53;;
7239;SDS011;3661;53.288;10.458;2023-01-26T06:07:11;571.97;;;518.37;;
7239;SDS011;3661;53.288;10.458;2023-01-26T06:09:43;575.03;;;521.45;;
7239;SDS011;3661;53.288;10.458;2023-01-26T06:12:17;590.78;;;536.85;;
7239;SDS011;3661;53.288;10.458;2023-01-26T06:14:50;562.80;;;509.50;;
7239;SDS011;3661;53.288;10.458;2023-01-26T06:17:22;573.22;;;519.65;;
7239;SDS011;3661;53.288;10.458;2023-01-26T06:19:58;583.47;;;530.42;;
7239;SDS011;3661;53.288;10.458;2023-01-26T06:22:31;561.85;;;508.75;;
7239;SDS011;3661;53.288;10.458;2023-01-26T06:25:07;559.63;;;506.35;;
7239;SDS011;3661;53.288;10.458;2023-01-26T06:27:40;575.42;;;523.20;;
7239;SDS011;3661;53.288;10.458;2023-01-26T06:30:13;579.00;;;525.53;;
7239;SDS011;3661;53.288;10.458;2023-01-26T06:32:46;579.05;;;525.30;;
7239;SDS011;3661;53.288;10.458;2023-01-26T06:35:18;585.33;;;531.85;;
7239;SDS011;3661;53.288;10.458;2023-01-26T06:37:51;579.87;;;526.80;;
7239;SDS011;3661;53.288;10.458;2023-01-26T06:40:24;580.15;;;526.50;;
7239;SDS011;3661;53.288;10.458;2023-01-26T06:42:56;595.00;;;541.70;;
7239;SDS011;3661;53.288;10.458;2023-01-26T06:45:28;587.13;;;533.97;;
7239;SDS011;3661;53.288;10.458;2023-01-26T06:48:00;572.25;;;519.25;;
7239;SDS011;3661;53.288;10.458;2023-01-26T06:50:32;573.63;;;520.53;;
7239;SDS011;3661;53.288;10.458;2023-01-26T06:53:20;579.22;;;526.58;;
7239;SDS011;3661;53.288;10.458;2023-01-26T06:55:56;588.97;;;536.35;;
7239;SDS011;3661;53.288;10.458;2023-01-26T06:58:29;573.42;;;521.85;;
7239;SDS011;3661;53.288;10.458;2023-01-26T07:01:01;576.70;;;524.50;;
7239;SDS011;3661;53.288;10.458;2023-01-26T07:03:33;570.58;;;518.78;;
7239;SDS011;3661;53.288;10.458;2023-01-26T07:06:05;584.80;;;532.58;;
7239;SDS011;3661;53.288;10.458;2023-01-26T07:08:42;573.75;;;521.42;;
7239;SDS011;3661;53.288;10.458;2023-01-26T07:11:15;574.55;;;523.38;;
7239;SDS011;3661;53.288;10.458;2023-01-26T07:13:49;588.55;;;536.50;;
7239;SDS011;3661;53.288;10.458;2023-01-26T07:16:21;592.17;;;540.28;;
7239;SDS011;3661;53.288;10.458;2023-01-26T07:18:54;586.40;;;535.40;;
7239;SDS011;3661;53.288;10.458;2023-01-26T07:21:26;583.55;;;532.90;;
7239;SDS011;3661;53.288;10.458;2023-01-26T07:23:59;594.30;;;543.20;;
7239;SDS011;3661;53.288;10.458;2023-01-26T07:26:32;591.67;;;540.45;;
7239;SDS011;3661;53.288;10.458;2023-01-26T07:29:04;586.13;;;535.88;;
7239;SDS011;3661;53.288;10.458;2023-01-26T07:31:36;581.53;;;531.07;;
7239;SDS011;3661;53.288;10.458;2023-01-26T07:34:08;582.33;;;531.53;;
7239;SDS011;3661;53.288;10.458;2023-01-26T07:36:40;592.42;;;541.65;;
7239;SDS011;3661;53.288;10.458;2023-01-26T07:39:14;571.45;;;521.05;;
7239;SDS011;3661;53.288;10.458;2023-01-26T07:41:46;572.60;;;522.25;;
7239;SDS011;3661;53.288;10.458;2023-01-26T07:44:20;576.30;;;525.58;;
7239;SDS011;3661;53.288;10.458;2023-01-26T07:46:52;590.13;;;539.35;;
7239;SDS011;3661;53.288;10.458;2023-01-26T07:49:24;580.40;;;530.05;;
7239;SDS011;3661;53.288;10.458;2023-01-26T07:51:58;596.25;;;546.17;;
7239;SDS011;3661;53.288;10.458;2023-01-26T07:54:31;584.97;;;534.58;;
7239;SDS011;3661;53.288;10.458;2023-01-26T07:57:03;574.15;;;523.47;;
7239;SDS011;3661;53.288;10.458;2023-01-26T07:59:37;594.42;;;544.20;;
7239;SDS011;3661;53.288;10.458;2023-01-26T08:02:09;581.40;;;531.78;;
7239;SDS011;3661;53.288;10.458;2023-01-26T08:04:41;591.15;;;540.78;;
7239;SDS011;3661;53.288;10.458;2023-01-26T08:07:13;585.30;;;534.78;;
7239;SDS011;3661;53.288;10.458;2023-01-26T08:09:47;585.38;;;534.53;;
7239;SDS011;3661;53.288;10.458;2023-01-26T08:12:19;605.33;;;553.90;;
7239;SDS011;3661;53.288;10.458;2023-01-26T08:14:51;583.42;;;532.15;;
7239;SDS011;3661;53.288;10.458;2023-01-26T08:17:23;590.72;;;539.33;;
7239;SDS011;3661;53.288;10.458;2023-01-26T08:19:56;567.60;;;515.90;;
7239;SDS011;3661;53.288;10.458;2023-01-26T08:22:28;590.15;;;538.45;;
7239;SDS011;3661;53.288;10.458;2023-01-26T08:25:01;590.47;;;538.72;;
7239;SDS011;3661;53.288;10.458;2023-01-26T08:27:34;592.20;;;540.30;;
7239;SDS011;3661;53.288;10.458;2023-01-26T08:30:07;599.47;;;547.23;;
7239;SDS011;3661;53.288;10.458;2023-01-26T08:32:39;585.15;;;532.47;;
7239;SDS011;3661;53.288;10.458;2023-01-26T08:35:11;601.70;;;548.70;;
7239;SDS011;3661;53.288;10.458;2023-01-26T08:37:44;586.30;;;532.80;;
7239;SDS011;3661;53.288;10.458;2023-01-26T08:40:17;597.72;;;544.45;;
7239;SDS011;3661;53.288;10.458;2023-01-26T08:42:49;606.95;;;553.70;;
7239;SDS011;3661;53.288;10.458;2023-01-26T08:45:21;607.97;;;554.30;;
7239;SDS011;3661;53.288;10.458;2023-01-26T08:47:54;598.08;;;544.90;;
7239;SDS011;3661;53.288;10.458;2023-01-26T08:50:26;591.80;;;538.55;;
7239;SDS011;3661;53.288;10.458;2023-01-26T08:52:58;607.10;;;553.78;;
7239;SDS011;3661;53.288;10.458;2023-01-26T08:55:31;588.53;;;534.92;;
7239;SDS011;3661;53.288;10.458;2023-01-26T08:58:04;598.37;;;544.73;;
7239;SDS011;3661;53.288;10.458;2023-01-26T09:00:36;598.92;;;545.25;;
7239;SDS011;3661;53.288;10.458;2023-01-26T09:03:08;594.30;;;540.40;;
7239;SDS011;3661;53.288;10.458;2023-01-26T09:05:41;590.50;;;536.65;;
7239;SDS011;3661;53.288;10.458;2023-01-26T09:08:13;590.25;;;537.25;;
7239;SDS011;3661;53.288;10.458;2023-01-26T09:10:46;597.43;;;544.47;;
7239;SDS011;3661;53.288;10.458;2023-01-26T09:13:18;608.00;;;554.90;;
7239;SDS011;3661;53.288;10.458;2023-01-26T09:15:50;602.75;;;549.65;;
7239;SDS011;3661;53.288;10.458;2023-01-26T09:18:23;597.23;;;543.77;;
7239;SDS011;3661;53.288;10.458;2023-01-26T09:21:00;596.25;;;543.63;;
7239;SDS011;3661;53.288;10.458;2023-01-26T09:23:33;594.72;;;542.03;;
7239;SDS011;3661;53.288;10.458;2023-01-26T09:26:08;601.38;;;547.72;;
7239;SDS011;3661;53.288;10.458;2023-01-26T09:28:40;600.27;;;547.10;;
7239;SDS011;3661;53.288;10.458;2023-01-26T09:31:12;591.13;;;538.60;;
7239;SDS011;3661;53.288;10.458;2023-01-26T09:33:44;604.25;;;551.15;;
7239;SDS011;3661;53.288;10.458;2023-01-26T09:36:18;612.70;;;559.37;;
7239;SDS011;3661;53.288;10.458;2023-01-26T09:38:50;592.85;;;539.80;;
7239;SDS011;3661;53.288;10.458;2023-01-26T09:41:41;616.42;;;562.72;;
7239;SDS011;3661;53.288;10.458;2023-01-26T09:44:27;606.78;;;553.10;;
7239;SDS011;3661;53.288;10.458;2023-01-26T09:47:04;619.92;;;565.72;;
7239;SDS011;3661;53.288;10.458;2023-01-26T09:49:46;600.13;;;546.42;;
7239;SDS011;3661;53.288;10.458;2023-01-26T09:52:22;613.35;;;559.70;;
7239;SDS011;3661;53.288;10.458;2023-01-26T09:54:59;611.63;;;558.15;;
7239;SDS011;3661;53.288;10.458;2023-01-26T09:57:36;605.80;;;552.00;;
7239;SDS011;3661;53.288;10.458;2023-01-26T10:00:19;607.72;;;554.05;;
7239;SDS011;3661;53.288;10.458;2023-01-26T10:02:59;588.57;;;534.53;;
7239;SDS011;3661;53.288;10.458;2023-01-26T10:05:41;598.25;;;544.10;;
7239;SDS011;3661;53.288;10.458;2023-01-26T10:08:20;601.50;;;547.97;;
7239;SDS011;3661;53.288;10.458;2023-01-26T10:10:55;603.47;;;549.38;;
7239;SDS011;3661;53.288;10.458;2023-01-26T10:13:32;596.20;;;542.53;;
7239;SDS011;3661;53.288;10.458;2023-01-26T10:16:07;601.55;;;548.38;;
7239;SDS011;3661;53.288;10.458;2023-01-26T10:18:44;609.27;;;555.63;;
7239;SDS011;3661;53.288;10.458;2023-01-26T10:21:24;603.85;;;550.38;;
7239;SDS011;3661;53.288;10.458;2023-01-26T10:24:01;609.00;;;554.93;;
7239;SDS011;3661;53.288;10.458;2023-01-26T10:26:34;596.80;;;542.47;;
7239;SDS011;3661;53.288;10.458;2023-01-26T10:29:11;600.50;;;546.05;;
7239;SDS011;3661;53.288;10.458;2023-01-26T10:31:45;599.75;;;545.42;;
7239;SDS011;3661;53.288;10.458;2023-01-26T10:34:20;599.25;;;544.58;;
7239;SDS011;3661;53.288;10.458;2023-01-26T10:36:57;602.40;;;547.72;;
7239;SDS011;3661;53.288;10.458;2023-01-26T10:39:32;600.75;;;545.75;;
7239;SDS011;3661;53.288;10.458;2023-01-26T10:42:08;616.35;;;561.35;;
7239;SDS011;3661;53.288;10.458;2023-01-26T10:44:50;607.92;;;553.47;;
7239;SDS011;3661;53.288;10.458;2023-01-26T10:47:22;603.35;;;548.97;;
7239;SDS011;3661;53.288;10.458;2023-01-26T10:52:56;610.95;;;557.13;;
7239;SDS011;3661;53.288;10.458;2023-01-26T10:55:29;622.08;;;567.78;;
7239;SDS011;3661;53.288;10.458;2023-01-26T10:58:02;611.72;;;557.72;;
7239;SDS011;3661;53.288;10.458;2023-01-26T11:00:36;629.97;;;574.67;;
7239;SDS011;3661;53.288;10.458;2023-01-26T11:03:15;636.22;;;581.38;;
7239;SDS011;3661;53.288;10.458;2023-01-26T11:05:53;625.58;;;571.80;;
7239;SDS011;3661;53.288;10.458;2023-01-26T11:08:37;626.33;;;572.38;;
7239;SDS011;3661;53.288;10.458;2023-01-26T11:11:21;630.00;;;575.63;;
7239;SDS011;3661;53.288;10.458;2023-01-26T11:14:08;628.28;;;574.20;;
7239;SDS011;3661;53.288;10.458;2023-01-26T11:16:44;616.90;;;563.53;;
7239;SDS011;3661;53.288;10.458;2023-01-26T11:19:29;611.08;;;557.42;;
7239;SDS011;3661;53.288;10.458;2023-01-26T11:22:19;630.25;;;576.85;;
7239;SDS011;3661;53.288;10.458;2023-01-26T11:24:58;628.50;;;575.08;;
7239;SDS011;3661;53.288;10.458;2023-01-26T11:27:42;632.60;;;579.00;;
7239;SDS011;3661;53.288;10.458;2023-01-26T11:30:29;638.47;;;584.72;;
7239;SDS011;3661;53.288;10.458;2023-01-26T11:33:15;637.47;;;583.13;;
7239;SDS011;3661;53.288;10.458;2023-01-26T11:35:56;617.00;;;563.55;;
7239;SDS011;3661;53.288;10.458;2023-01-26T11:38:37;626.65;;;572.55;;
7239;SDS011;3661;53.288;10.458;2023-01-26T11:41:14;630.63;;;576.53;;
7239;SDS011;3661;53.288;10.458;2023-01-26T11:43:57;627.72;;;573.83;;
7239;SDS011;3661;53.288;10.458;2023-01-26T11:49:56;645.80;;;590.55;;
7239;SDS011;3661;53.288;10.458;2023-01-26T11:52:42;652.60;;;598.15;;
7239;SDS011;3661;53.288;10.458;2023-01-26T11:55:23;648.15;;;593.60;;
7239;SDS011;3661;53.288;10.458;2023-01-26T11:58:12;660.20;;;605.28;;
7239;SDS011;3661;53.288;10.458;2023-01-26T12:00:51;667.40;;;611.63;;
7239;SDS011;3661;53.288;10.458;2023-01-26T12:03:30;657.22;;;601.65;;
7239;SDS011;3661;53.288;10.458;2023-01-26T12:06:14;640.75;;;585.70;;
7239;SDS011;3661;53.288;10.458;2023-01-26T12:08:49;663.35;;;607.35;;
7239;SDS011;3661;53.288;10.458;2023-01-26T12:11:24;662.88;;;607.70;;
7239;SDS011;3661;53.288;10.458;2023-01-26T12:14:12;668.60;;;613.15;;
7239;SDS011;3661;53.288;10.458;2023-01-26T12:16:57;667.55;;;612.47;;
7239;SDS011;3661;53.288;10.458;2023-01-26T12:19:38;655.35;;;600.95;;
7239;SDS011;3661;53.288;10.458;2023-01-26T12:22:19;665.72;;;610.80;;
7239;SDS011;3661;53.288;10.458;2023-01-26T12:24:57;663.72;;;609.05;;
7239;SDS011;3661;53.288;10.458;2023-01-26T12:27:41;681.75;;;626.15;;
7239;SDS011;3661;53.288;10.458;2023-01-26T12:30:25;661.58;;;605.40;;
7239;SDS011;3661;53.288;10.458;2023-01-26T12:33:03;676.40;;;620.63;;
7239;SDS011;3661;53.288;10.458;2023-01-26T12:35:39;656.58;;;601.20;;
7239;SDS011;3661;53.288;10.458;2023-01-26T12:38:27;671.72;;;616.35;;
7239;SDS011;3661;53.288;10.458;2023-01-26T12:41:12;683.47;;;626.83;;
7239;SDS011;3661;53.288;10.458;2023-01-26T12:43:56;665.60;;;610.15;;
7239;SDS011;3661;53.288;10.458;2023-01-26T12:46:37;697.10;;;640.35;;
7239;SDS011;3661;53.288;10.458;2023-01-26T12:49:14;687.17;;;631.08;;
7239;SDS011;3661;53.288;10.458;2023-01-26T12:51:53;680.08;;;623.30;;
7239;SDS011;3661;53.288;10.458;2023-01-26T12:54:33;690.78;;;634.78;;
7239;SDS011;3661;53.288;10.458;2023-01-26T12:57:10;668.78;;;612.75;;
7239;SDS011;3661;53.288;10.458;2023-01-26T12:59:45;668.03;;;612.35;;
7239;SDS011;3661;53.288;10.458;2023-01-26T13:02:20;675.80;;;619.38;;
7239;SDS011;3661;53.288;10.458;2023-01-26T13:04:57;679.53;;;623.67;;
7239;SDS011;3661;53.288;10.458;2023-01-26T13:07:32;677.05;;;621.25;;
7239;SDS011;3661;53.288;10.458;2023-01-26T13:13:27;677.80;;;621.03;;
7239;SDS011;3661;53.288;10.458;2023-01-26T13:19:02;671.33;;;615.70;;
7239;SDS011;3661;53.288;10.458;2023-01-26T13:21:41;681.75;;;626.08;;
7239;SDS011;3661;53.288;10.458;2023-01-26T13:27:29;662.58;;;606.65;;
7239;SDS011;3661;53.288;10.458;2023-01-26T13:30:14;684.65;;;628.55;;
7239;SDS011;3661;53.288;10.458;2023-01-26T13:33:09;682.00;;;626.33;;
7239;SDS011;3661;53.288;10.458;2023-01-26T13:35:47;685.15;;;629.45;;
7239;SDS011;3661;53.288;10.458;2023-01-26T13:38:28;693.78;;;637.70;;
7239;SDS011;3661;53.288;10.458;2023-01-26T13:41:06;671.13;;;615.25;;
7239;SDS011;3661;53.288;10.458;2023-01-26T13:43:42;688.92;;;632.13;;
7239;SDS011;3661;53.288;10.458;2023-01-26T13:46:20;684.43;;;628.33;;
7239;SDS011;3661;53.288;10.458;2023-01-26T13:48:59;675.53;;;619.88;;
7239;SDS011;3661;53.288;10.458;2023-01-26T13:51:32;688.13;;;631.88;;
7239;SDS011;3661;53.288;10.458;2023-01-26T13:54:06;687.57;;;632.10;;
7239;SDS011;3661;53.288;10.458;2023-01-26T13:56:43;669.45;;;613.65;;
7239;SDS011;3661;53.288;10.458;2023-01-26T13:59:32;681.65;;;624.53;;
7239;SDS011;3661;53.288;10.458;2023-01-26T14:02:09;696.78;;;640.22;;
7239;SDS011;3661;53.288;10.458;2023-01-26T14:04:52;667.22;;;610.83;;
7239;SDS011;3661;53.288;10.458;2023-01-26T14:07:27;693.17;;;636.65;;
7239;SDS011;3661;53.288;10.458;2023-01-26T14:10:03;686.97;;;631.08;;
7239;SDS011;3661;53.288;10.458;2023-01-26T14:12:40;703.75;;;647.33;;
7239;SDS011;3661;53.288;10.458;2023-01-26T14:15:20;703.10;;;646.67;;
7239;SDS011;3661;53.288;10.458;2023-01-26T14:17:55;695.97;;;638.97;;
7239;SDS011;3661;53.288;10.458;2023-01-26T14:20:29;705.60;;;648.90;;
7239;SDS011;3661;53.288;10.458;2023-01-26T14:23:11;694.00;;;638.25;;
7239;SDS011;3661;53.288;10.458;2023-01-26T14:25:45;699.25;;;643.20;;
7239;SDS011;3661;53.288;10.458;2023-01-26T14:28:20;690.13;;;634.00;;
7239;SDS011;3661;53.288;10.458;2023-01-26T14:30:56;698.67;;;642.60;;
7239;SDS011;3661;53.288;10.458;2023-01-26T14:33:32;704.77;;;648.53;;
7239;SDS011;3661;53.288;10.458;2023-01-26T14:36:04;705.10;;;648.65;;
7239;SDS011;3661;53.288;10.458;2023-01-26T14:38:41;687.53;;;631.42;;
7239;SDS011;3661;53.288;10.458;2023-01-26T14:41:15;691.45;;;635.70;;
7239;SDS011;3661;53.288;10.458;2023-01-26T14:43:52;688.47;;;632.73;;
7239;SDS011;3661;53.288;10.458;2023-01-26T14:46:27;683.47;;;628.00;;
7239;SDS011;3661;53.288;10.458;2023-01-26T14:49:05;705.35;;;648.13;;
7239;SDS011;3661;53.288;10.458;2023-01-26T14:51:43;700.07;;;643.20;;
7239;SDS011;3661;53.288;10.458;2023-01-26T14:54:16;692.60;;;636.78;;
7239;SDS011;3661;53.288;10.458;2023-01-26T14:56:55;702.70;;;645.40;;
7239;SDS011;3661;53.288;10.458;2023-01-26T14:59:31;692.28;;;635.63;;
7239;SDS011;3661;53.288;10.458;2023-01-26T15:02:14;699.63;;;642.97;;
7239;SDS011;3661;53.288;10.458;2023-01-26T15:04:51;699.00;;;642.20;;
7239;SDS011;3661;53.288;10.458;2023-01-26T15:07:30;708.55;;;651.65;;
7239;SDS011;3661;53.288;10.458;2023-01-26T15:13:15;700.27;;;643.03;;
7239;SDS011;3661;53.288;10.458;2023-01-26T15:16:00;695.88;;;638.97;;
7239;SDS011;3661;53.288;10.458;2023-01-26T15:18:35;686.00;;;629.47;;